Time;durP1;ratioP1;P1;durP2;ratioP2;P2;SDS_P1;SDS_P2;PMS_P1;PMS_P2;Temp;Humidity;BMP_temperature;BMP_pressure;BME280_temperature;BME280_humidity;BME280_pressure;Samples;Min_cycle;Max_cycle;Signal;HPM_P1;HPM_P2
2024/01/27 00:00:17;;;;;;;;;;;0.80;99.90;;;;;;5102691;27;19911;-86
2024/01/27 00:02:43;;;;;;;;;;;0.80;99.90;;;;;;5119778;27;20048;-87
2024/01/27 00:05:09;;;;;;;;;;;0.70;99.90;;;;;;5119611;27;19915;-86
2024/01/27 00:07:34;;;;;;;;;;;0.70;99.90;;;;;;5102609;27;19919;-87
2024/01/27 00:10:01;;;;;;;;;;;0.60;99.90;;;;;;5101948;27;19915;-85
2024/01/27 00:12:27;;;;;;;;;;;0.70;99.90;;;;;;5119111;27;19970;-87
2024/01/27 00:14:52;;;;;;;;;;;0.70;99.90;;;;;;5102613;27;19960;-87
2024/01/27 00:17:23;;;;;;;;;;;0.60;99.90;;;;;;5101639;27;19911;-85
2024/01/27 00:19:49;;;;;;;;;;;0.70;99.90;;;;;;5119041;27;20006;-87
2024/01/27 00:22:16;;;;;;;;;;;0.70;99.90;;;;;;5118496;27;19915;-86
2024/01/27 00:24:42;;;;;;;;;;;0.80;99.90;;;;;;5101914;27;19912;-87
2024/01/27 00:27:08;;;;;;;;;;;0.80;99.90;;;;;;5100622;27;19922;-86
2024/01/27 00:29:34;;;;;;;;;;;0.70;99.90;;;;;;5118143;27;20294;-86
2024/01/27 00:31:59;;;;;;;;;;;0.80;99.90;;;;;;5102002;27;19916;-86
2024/01/27 00:34:25;;;;;;;;;;;0.80;99.90;;;;;;5119364;27;19911;-86
2024/01/27 00:36:51;;;;;;;;;;;0.70;99.90;;;;;;5101349;27;19916;-87
2024/01/27 00:39:20;;;;;;;;;;;0.70;99.90;;;;;;5100806;27;19994;-86
2024/01/27 00:41:45;;;;;;;;;;;0.60;99.90;;;;;;5117964;27;19918;-85
2024/01/27 00:44:11;;;;;;;;;;;0.60;99.90;;;;;;5101104;27;20361;-86
2024/01/27 00:46:37;;;;;;;;;;;0.50;99.90;;;;;;5118586;27;19911;-87
2024/01/27 00:49:02;;;;;;;;;;;0.50;99.90;;;;;;5101118;27;19915;-86
2024/01/27 00:51:28;;;;;;;;;;;0.60;99.90;;;;;;5101624;27;19964;-87
2024/01/27 00:53:54;;;;;;;;;;;0.60;99.90;;;;;;5118038;27;19915;-86
2024/01/27 00:56:19;;;;;;;;;;;0.50;99.90;;;;;;5117959;27;19915;-85
2024/01/27 00:58:45;;;;;;;;;;;0.50;99.90;;;;;;5118495;27;20006;-85
2024/01/27 01:01:10;;;;;;;;;;;0.50;99.90;;;;;;5118347;27;19919;-86
2024/01/27 01:03:36;;;;;;;;;;;0.40;99.90;;;;;;5100584;27;20630;-85
2024/01/27 01:06:02;;;;;;;;;;;0.40;99.90;;;;;;5102093;27;19916;-85
2024/01/27 01:08:28;;;;;;;;;;;0.30;99.90;;;;;;5130304;27;19911;-86
2024/01/27 01:10:54;;;;;;;;;;;0.40;99.90;;;;;;5104240;27;19977;-85
2024/01/27 01:13:19;;;;;;;;;;;0.40;99.90;;;;;;5099737;27;20346;-85
2024/01/27 01:15:45;;;;;;;;;;;0.30;99.90;;;;;;5100177;27;19911;-86
2024/01/27 01:18:11;;;;;;;;;;;0.20;99.90;;;;;;5099792;27;19915;-86
2024/01/27 01:20:36;;;;;;;;;;;0.40;99.90;;;;;;5100279;27;19954;-86
2024/01/27 01:23:02;;;;;;;;;;;0.50;99.90;;;;;;5099566;27;20572;-86
2024/01/27 01:25:28;;;;;;;;;;;0.50;99.90;;;;;;5100074;27;20006;-85
2024/01/27 01:27:54;;;;;;;;;;;0.40;99.90;;;;;;5100364;27;19969;-85
2024/01/27 01:30:19;;;;;;;;;;;0.30;99.90;;;;;;5100248;27;20362;-85
2024/01/27 01:32:45;;;;;;;;;;;0.20;99.90;;;;;;5099890;27;20365;-86
2024/01/27 01:35:11;;;;;;;;;;;0.10;99.90;;;;;;5100404;27;19922;-86
2024/01/27 01:37:36;;;;;;;;;;;0.10;99.90;;;;;;5098933;27;19936;-86
2024/01/27 01:40:02;;;;;;;;;;;0.20;99.90;;;;;;5099429;27;20369;-86
2024/01/27 01:42:29;;;;;;;;;;;0.20;99.90;;;;;;5099458;27;19912;-86
2024/01/27 01:44:55;;;;;;;;;;;0.20;99.90;;;;;;5117601;27;19917;-87
2024/01/27 01:47:22;;;;;;;;;;;0.30;99.90;;;;;;5099397;27;19911;-86
2024/01/27 01:49:48;;;;;;;;;;;0.30;99.90;;;;;;5116682;28;19961;-86
2024/01/27 01:52:19;;;;;;;;;;;0.20;99.90;;;;;;5098644;28;19915;-86
2024/01/27 01:54:48;;;;;;;;;;;0.20;99.90;;;;;;5099040;28;20011;-86
2024/01/27 01:57:14;;;;;;;;;;;0.10;99.90;;;;;;5098569;27;19922;-86
2024/01/27 01:59:40;;;;;;;;;;;0.10;99.90;;;;;;5115581;28;20367;-86
2024/01/27 02:02:06;;;;;;;;;;;0.00;99.90;;;;;;5098538;28;19955;-86
2024/01/27 02:04:42;;;;;;;;;;;0.00;99.90;;;;;;5099369;28;20453;-86
2024/01/27 02:07:07;;;;;;;;;;;0.00;99.90;;;;;;5098879;28;19958;-86
2024/01/27 02:09:33;;;;;;;;;;;-0.10;99.90;;;;;;5116413;28;19912;-86
2024/01/27 02:11:59;;;;;;;;;;;-0.10;99.90;;;;;;5115879;28;19962;-86
2024/01/27 02:14:27;;;;;;;;;;;-0.10;99.90;;;;;;5099498;28;19957;-86
2024/01/27 02:16:53;;;;;;;;;;;-0.10;99.90;;;;;;5099076;28;19912;-86
2024/01/27 02:19:18;;;;;;;;;;;-0.20;99.90;;;;;;5099173;28;19919;-87
2024/01/27 02:21:44;;;;;;;;;;;-0.30;99.90;;;;;;5099093;28;19914;-87
2024/01/27 02:24:10;;;;;;;;;;;-0.20;99.90;;;;;;5115319;28;20383;-86
2024/01/27 02:26:36;;;;;;;;;;;-0.20;99.90;;;;;;5099512;28;19911;-86
2024/01/27 02:29:01;;;;;;;;;;;-0.20;99.90;;;;;;5099597;28;19915;-86
2024/01/27 02:31:27;;;;;;;;;;;-0.30;99.90;;;;;;5115888;28;19967;-87
2024/01/27 02:33:52;;;;;;;;;;;-0.30;99.90;;;;;;5098131;28;20286;-86
2024/01/27 02:36:18;;;;;;;;;;;-0.20;99.90;;;;;;5115669;28;19924;-86
2024/01/27 02:38:43;;;;;;;;;;;-0.20;99.90;;;;;;5099333;28;20370;-86
2024/01/27 02:41:09;;;;;;;;;;;-0.30;99.90;;;;;;5098394;28;19908;-86
2024/01/27 02:43:35;;;;;;;;;;;-0.30;99.90;;;;;;5098176;28;19915;-87
2024/01/27 02:46:01;;;;;;;;;;;-0.40;99.90;;;;;;5116332;28;20364;-86
2024/01/27 02:48:26;;;;;;;;;;;-0.40;99.90;;;;;;5116198;27;20529;-86
2024/01/27 02:50:52;;;;;;;;;;;-0.40;99.90;;;;;;5102204;27;20375;-87
2024/01/27 02:53:17;;;;;;;;;;;-0.30;99.90;;;;;;5120384;27;19930;-86
2024/01/27 02:55:43;;;;;;;;;;;-0.30;99.90;;;;;;5102424;27;20002;-86
2024/01/27 02:58:09;;;;;;;;;;;-0.30;99.90;;;;;;5102304;27;20389;-86
2024/01/27 03:00:34;;;;;;;;;;;-0.30;99.90;;;;;;5101984;27;19923;-86
2024/01/27 03:03:00;;;;;;;;;;;-0.40;99.90;;;;;;5119438;27;20409;-86
2024/01/27 03:05:25;;;;;;;;;;;-0.50;99.90;;;;;;5101719;27;19911;-86
2024/01/27 03:07:51;;;;;;;;;;;-0.50;99.90;;;;;;5118827;27;19907;-86
2024/01/27 03:10:17;;;;;;;;;;;-0.50;99.90;;;;;;5137701;27;19916;-86
2024/01/27 03:12:42;;;;;;;;;;;-0.60;99.90;;;;;;5119653;27;19922;-87
2024/01/27 03:15:08;;;;;;;;;;;-0.70;99.90;;;;;;5137468;27;20358;-86
2024/01/27 03:17:33;;;;;;;;;;;-0.70;99.90;;;;;;5118837;27;20010;-86
2024/01/27 03:19:59;;;;;;;;;;;-0.70;99.90;;;;;;5137953;27;19969;-86
2024/01/27 03:22:25;;;;;;;;;;;-0.80;99.90;;;;;;5102260;27;19911;-86
2024/01/27 03:24:51;;;;;;;;;;;-0.90;99.90;;;;;;5102238;27;19976;-86
2024/01/27 03:27:17;;;;;;;;;;;-0.90;99.90;;;;;;5101527;27;20021;-86
2024/01/27 03:29:42;;;;;;;;;;;-0.90;99.90;;;;;;5119156;27;20413;-86
2024/01/27 03:32:08;;;;;;;;;;;-1.10;99.90;;;;;;5119343;27;20260;-86
2024/01/27 03:34:34;;;;;;;;;;;-1.30;99.90;;;;;;5102130;27;20010;-87
2024/01/27 03:36:59;;;;;;;;;;;-1.40;99.90;;;;;;5137486;27;19919;-86
2024/01/27 03:39:25;;;;;;;;;;;-1.60;99.90;;;;;;5119194;27;20304;-87
2024/01/27 03:41:50;;;;;;;;;;;-1.70;99.90;;;;;;5102270;27;19919;-87
2024/01/27 03:44:16;;;;;;;;;;;-1.70;99.90;;;;;;5102451;27;19915;-87
2024/01/27 03:46:41;;;;;;;;;;;-1.80;99.90;;;;;;5119907;27;20015;-87
2024/01/27 03:49:07;;;;;;;;;;;-1.80;99.90;;;;;;5118656;27;19926;-86
2024/01/27 03:51:33;;;;;;;;;;;-2.00;99.90;;;;;;5100570;27;19923;-86
2024/01/27 03:53:58;;;;;;;;;;;-2.00;99.90;;;;;;5118475;27;20642;-87
2024/01/27 03:56:24;;;;;;;;;;;-2.10;99.90;;;;;;5118166;27;20393;-86
2024/01/27 03:58:50;;;;;;;;;;;-2.20;99.90;;;;;;5117944;27;19916;-86
2024/01/27 04:01:15;;;;;;;;;;;-2.20;99.90;;;;;;5101253;27;19911;-87
2024/01/27 04:03:41;;;;;;;;;;;-2.30;99.90;;;;;;5101766;27;19960;-86
2024/01/27 04:06:06;;;;;;;;;;;-2.30;99.90;;;;;;5118298;27;19934;-86
2024/01/27 04:08:32;;;;;;;;;;;-2.40;99.90;;;;;;5100743;27;19912;-87
2024/01/27 04:10:58;;;;;;;;;;;-2.40;99.90;;;;;;5101184;27;19926;-86
2024/01/27 04:13:23;;;;;;;;;;;-2.40;99.90;;;;;;5101421;27;19926;-86
2024/01/27 04:15:51;;;;;;;;;;;-2.50;99.90;;;;;;5101330;27;20367;-87
2024/01/27 04:18:16;;;;;;;;;;;-2.60;99.90;;;;;;5101324;27;19960;-87
2024/01/27 04:20:42;;;;;;;;;;;-2.50;99.90;;;;;;5119032;27;20342;-86
2024/01/27 04:23:08;;;;;;;;;;;-2.40;99.90;;;;;;5118058;27;19916;-87
2024/01/27 04:25:33;;;;;;;;;;;-2.30;99.90;;;;;;5101319;27;20006;-87
2024/01/27 04:27:59;;;;;;;;;;;-2.30;99.90;;;;;;5117676;27;20255;-87
2024/01/27 04:30:24;;;;;;;;;;;-2.30;99.90;;;;;;5101411;27;19915;-87
2024/01/27 04:32:51;;;;;;;;;;;-2.30;99.90;;;;;;5101255;27;19911;-87
2024/01/27 04:35:17;;;;;;;;;;;-2.30;99.90;;;;;;5101502;27;19912;-86
2024/01/27 04:37:44;;;;;;;;;;;-2.40;99.90;;;;;;5101360;27;19922;-87
2024/01/27 04:40:10;;;;;;;;;;;-2.40;99.90;;;;;;5101698;27;19907;-87
2024/01/27 04:42:37;;;;;;;;;;;-2.50;99.90;;;;;;5118371;27;20130;-87
2024/01/27 04:45:04;;;;;;;;;;;-2.60;99.90;;;;;;5101792;27;19911;-87
2024/01/27 04:47:30;;;;;;;;;;;-2.60;99.90;;;;;;5117751;27;19915;-86
2024/01/27 04:49:57;;;;;;;;;;;-2.60;99.90;;;;;;5100037;27;19926;-87
2024/01/27 04:52:23;;;;;;;;;;;-2.60;99.90;;;;;;5100507;27;20010;-86
2024/01/27 04:54:48;;;;;;;;;;;-2.70;99.90;;;;;;5100527;27;20374;-87
2024/01/27 04:57:14;;;;;;;;;;;-2.70;99.90;;;;;;5101723;27;19915;-87
2024/01/27 04:59:40;;;;;;;;;;;-2.60;99.90;;;;;;5118308;27;19937;-87
2024/01/27 05:02:06;;;;;;;;;;;-2.70;99.90;;;;;;5101360;27;19922;-87
2024/01/27 05:04:32;;;;;;;;;;;-2.80;99.90;;;;;;5100572;27;19954;-87
2024/01/27 05:06:57;;;;;;;;;;;-2.90;99.90;;;;;;5100344;27;19912;-87
2024/01/27 05:09:23;;;;;;;;;;;-2.90;99.90;;;;;;5099855;27;20573;-87
2024/01/27 05:11:51;;;;;;;;;;;-2.90;99.90;;;;;;5098371;27;19919;-87
2024/01/27 05:14:17;;;;;;;;;;;-2.90;99.90;;;;;;5099768;27;20033;-87
2024/01/27 05:16:42;;;;;;;;;;;-2.90;99.90;;;;;;5099983;27;19999;-87
2024/01/27 05:19:08;;;;;;;;;;;-2.90;99.90;;;;;;5100696;27;19911;-88
2024/01/27 05:21:33;;;;;;;;;;;-2.90;99.90;;;;;;5117230;27;19915;-88
2024/01/27 05:23:59;;;;;;;;;;;-3.00;99.90;;;;;;5117654;27;19912;-88
2024/01/27 05:26:24;;;;;;;;;;;-2.70;99.90;;;;;;5136502;27;19913;-87
2024/01/27 05:28:50;;;;;;;;;;;-2.70;99.90;;;;;;5118205;27;19918;-88
2024/01/27 05:31:16;;;;;;;;;;;-2.60;99.90;;;;;;5102160;27;20374;-88
2024/01/27 05:33:42;;;;;;;;;;;-2.70;99.90;;;;;;5119681;27;19945;-87
2024/01/27 05:36:08;;;;;;;;;;;-2.70;99.90;;;;;;5103530;27;19915;-88
2024/01/27 05:38:33;;;;;;;;;;;-2.80;99.90;;;;;;5104037;27;19969;-88
2024/01/27 05:41:36;;;;;;;;;;;-2.90;99.90;;;;;;5107584;27;19912;-87
2024/01/27 05:44:02;;;;;;;;;;;-2.90;99.90;;;;;;5134784;27;20013;-87
2024/01/27 05:46:28;;;;;;;;;;;-2.90;99.90;;;;;;5100699;27;19950;-87
2024/01/27 05:48:54;;;;;;;;;;;-2.80;99.90;;;;;;5100161;27;20464;-87
2024/01/27 05:51:25;;;;;;;;;;;-2.90;99.90;;;;;;5099948;28;20381;-87
2024/01/27 05:53:51;;;;;;;;;;;-3.00;99.90;;;;;;5100385;27;19919;-87
2024/01/27 05:56:20;;;;;;;;;;;-3.10;99.90;;;;;;5100690;27;19977;-88
2024/01/27 05:58:46;;;;;;;;;;;-3.00;99.90;;;;;;5116754;27;19919;-87
2024/01/27 06:01:11;;;;;;;;;;;-3.00;99.90;;;;;;5100501;28;19911;-87
2024/01/27 06:03:37;;;;;;;;;;;-2.90;99.90;;;;;;5115913;28;19919;-88
2024/01/27 06:06:03;;;;;;;;;;;-2.80;99.90;;;;;;5099286;28;19911;-88
2024/01/27 06:08:29;;;;;;;;;;;-2.70;99.90;;;;;;5099659;28;20382;-87
2024/01/27 06:10:54;;;;;;;;;;;-2.60;99.90;;;;;;5099221;28;19977;-88
2024/01/27 06:13:20;;;;;;;;;;;-2.60;99.90;;;;;;5115899;28;19968;-87
2024/01/27 06:15:45;;;;;;;;;;;-2.50;99.90;;;;;;5099782;28;20655;-87
2024/01/27 06:18:11;;;;;;;;;;;-2.50;99.90;;;;;;5099718;28;20278;-87
2024/01/27 06:20:37;;;;;;;;;;;-2.40;99.90;;;;;;5099962;28;20341;-87
2024/01/27 06:23:02;;;;;;;;;;;-2.20;99.90;;;;;;5097040;27;19919;-87
2024/01/27 06:25:28;;;;;;;;;;;-2.20;99.90;;;;;;5102708;27;19919;-87
2024/01/27 06:27:53;;;;;;;;;;;-2.30;99.90;;;;;;5119796;27;19919;-87
2024/01/27 06:30:19;;;;;;;;;;;-2.30;99.90;;;;;;5102916;27;20033;-87
2024/01/27 06:32:46;;;;;;;;;;;-2.30;99.90;;;;;;5102459;27;20377;-87
2024/01/27 06:35:12;;;;;;;;;;;-2.10;99.90;;;;;;5103365;27;20354;-88
2024/01/27 06:37:37;;;;;;;56.15;19.15;;;-1.90;99.90;;;;;;5102603;27;20006;-88
2024/01/27 06:40:03;;;;;;;;;;;-2.00;99.90;;;;;;5137456;27;20047;-87
2024/01/27 06:42:29;;;;;;;;;;;-2.00;99.90;;;;;;5120263;27;19907;-88
2024/01/27 06:44:55;;;;;;;;;;;-1.80;99.90;;;;;;5103847;27;20007;-87
2024/01/27 06:47:21;;;;;;;;;;;-1.70;99.90;;;;;;5103389;27;20556;-87
2024/01/27 06:49:46;;;;;;;;;;;-1.70;99.90;;;;;;5120411;27;19960;-88
2024/01/27 06:52:12;;;;;;;;;;;-1.70;99.90;;;;;;5121048;27;19956;-87
2024/01/27 06:54:43;;;;;;;;;;;-1.70;99.90;;;;;;5120321;27;19907;-87
2024/01/27 06:57:20;;;;;;;;;;;-1.60;99.90;;;;;;5120260;27;19960;-87
2024/01/27 06:59:48;;;;;;;;;;;-1.70;99.90;;;;;;5120073;27;19907;-88
2024/01/27 07:02:14;;;;;;;;;;;-1.80;99.90;;;;;;5120464;27;19919;-87
2024/01/27 07:04:40;;;;;;;;;;;-1.90;99.90;;;;;;5104010;27;19911;-87
2024/01/27 07:07:12;;;;;;;;;;;-2.00;99.90;;;;;;5119002;27;19913;-85
2024/01/27 07:09:38;;;;;;;;;;;-2.00;99.90;;;;;;5103594;27;19908;-85
2024/01/27 07:12:03;;;;;;;;;;;-2.00;99.90;;;;;;5119991;27;19918;-85
2024/01/27 07:14:29;;;;;;;;;;;-2.10;99.90;;;;;;5103178;27;19911;-86
2024/01/27 07:16:55;;;;;;;;;;;-2.10;99.90;;;;;;5102602;27;19907;-85
2024/01/27 07:19:20;;;;;;;;;;;-2.00;99.90;;;;;;5102549;27;20050;-85
2024/01/27 07:21:46;;;;;;;;;;;-2.10;99.90;;;;;;5100335;27;19941;-86
2024/01/27 07:24:12;;;;;;;;;;;-2.20;99.90;;;;;;5102302;27;19943;-85
2024/01/27 07:26:38;;;;;;;;;;;-2.20;99.90;;;;;;5102309;27;19915;-86
2024/01/27 07:29:03;;;;;;;;;;;-2.20;99.90;;;;;;5137694;27;20316;-85
2024/01/27 07:31:29;;;;;;;;;;;-2.20;99.90;;;;;;5101897;27;19933;-85
2024/01/27 07:33:55;;;;;;;;;;;-2.20;99.90;;;;;;5102307;28;19912;-85
2024/01/27 07:36:20;;;;;;;;;;;-2.10;99.90;;;;;;5102795;27;19971;-86
2024/01/27 07:38:46;;;;;;;;;;;-2.10;99.90;;;;;;5103012;27;19930;-85
2024/01/27 07:41:11;;;;;;;;;;;-2.20;99.90;;;;;;5102913;27;19914;-85
2024/01/27 07:43:37;;;;;;;;;;;-2.20;99.90;;;;;;5119394;27;20275;-86
2024/01/27 07:46:03;;;;;;;;;;;-2.20;99.90;;;;;;5118478;27;19994;-85
2024/01/27 07:48:28;;;;;;;;;;;-2.20;99.90;;;;;;5101823;27;19989;-85
2024/01/27 07:50:56;;;;;;;;;;;-2.00;99.90;;;;;;5101754;27;19960;-86
2024/01/27 07:53:24;;;;;;;;;;;-2.10;99.90;;;;;;5101873;27;19975;-86
2024/01/27 07:55:50;;;;;;;;;;;-2.10;99.90;;;;;;5101749;27;19949;-85
2024/01/27 07:58:19;;;;;;;;;;;-1.90;99.90;;;;;;5102173;27;19938;-86
2024/01/27 08:00:48;;;;;;;;;;;-1.80;99.90;;;;;;5102782;27;19993;-86
2024/01/27 08:03:14;;;;;;;;;;;-1.80;99.90;;;;;;5102033;27;20022;-86
2024/01/27 08:05:39;;;;;;;;;;;-1.90;99.90;;;;;;5101250;27;19911;-86
2024/01/27 08:08:05;;;;;;;;;;;-2.00;99.90;;;;;;5101410;27;19910;-86
2024/01/27 08:10:31;;;;;;;;;;;-1.90;99.90;;;;;;5101257;27;19912;-86
2024/01/27 08:12:56;;;;;;;;;;;-1.80;99.90;;;;;;5102066;27;19923;-86
2024/01/27 08:15:22;;;;;;;;;;;-1.80;99.90;;;;;;5102071;27;19910;-86
2024/01/27 08:17:47;;;;;;;;;;;-1.80;99.90;;;;;;5118701;27;19912;-86
2024/01/27 08:20:13;;;;;;;;;;;-1.80;99.90;;;;;;5102679;27;20441;-86
2024/01/27 08:22:39;;;;;;;;;;;-1.80;99.90;;;;;;5101847;27;20362;-85
2024/01/27 08:25:05;;;;;;;;;;;-1.80;99.90;;;;;;5118491;27;19911;-86
2024/01/27 08:30:59;;;;;;;;;;;-1.60;99.90;;;;;;5136511;27;20043;-87
2024/01/27 08:33:25;;;;;;;;;;;-1.50;99.90;;;;;;5100965;27;19998;-86
2024/01/27 08:35:51;;;;;;;;;;;-1.50;99.90;;;;;;5101771;27;19955;-87
2024/01/27 08:38:17;;;;;;;;;;;-1.40;99.90;;;;;;5118737;27;19907;-87
2024/01/27 08:40:43;;;;;;;;;;;-1.30;99.90;;;;;;5102114;27;20671;-86
2024/01/27 08:43:09;;;;;;;;;;;-1.20;99.90;;;;;;5119295;27;19998;-86
2024/01/27 08:45:36;;;;;;;;;;;-1.10;99.90;;;;;;5101527;27;19907;-85
2024/01/27 08:48:02;;;;;;;;;;;-1.00;99.90;;;;;;5118662;27;19957;-86
2024/01/27 08:50:27;;;;;;;;;;;-0.90;99.90;;;;;;5101075;27;20382;-86
2024/01/27 08:52:53;;;;;;;;;;;-0.70;99.90;;;;;;5118301;27;19993;-85
2024/01/27 08:55:19;;;;;;;;;;;-0.60;99.90;;;;;;5099547;27;19918;-82
2024/01/27 08:57:46;;;;;;;;;;;-0.60;99.90;;;;;;5101858;27;19908;-86
2024/01/27 09:00:12;;;;;;;;;;;-0.50;99.90;;;;;;5118156;27;20409;-86
2024/01/27 09:02:38;;;;;;;;;;;-0.40;99.90;;;;;;5116616;27;19907;-86
2024/01/27 09:05:05;;;;;;;;;;;-0.30;99.90;;;;;;5100623;27;19904;-86
2024/01/27 09:07:30;;;;;;;;;;;-0.20;99.90;;;;;;5100212;27;19949;-87
2024/01/27 09:10:09;;;;;;;;;;;-0.10;99.90;;;;;;5134656;27;19935;-87
2024/01/27 09:12:34;;;;;;;;;;;0.10;99.90;;;;;;5099323;27;19914;-86
2024/01/27 09:15:00;;;;;;;;;;;0.30;99.90;;;;;;5116818;27;19907;-86
2024/01/27 09:17:26;;;;;;;;;;;0.30;99.90;;;;;;5098985;27;19914;-86
2024/01/27 09:19:51;;;;;;;;;;;0.50;99.90;;;;;;5116212;27;19979;-87
2024/01/27 09:22:17;;;;;;;;;;;0.50;99.90;;;;;;5099508;27;20501;-86
2024/01/27 09:24:43;;;;;;;;;;;0.60;99.90;;;;;;5116329;27;20367;-85
2024/01/27 09:27:08;;;;;;;;;;;0.80;99.90;;;;;;5099017;27;20006;-86
2024/01/27 09:29:34;;;;;;;;;;;0.80;99.90;;;;;;5116305;27;19911;-85
2024/01/27 09:31:59;;;;;;;;;;;0.80;99.90;;;;;;5098273;27;20259;-85
2024/01/27 09:34:25;;;;;;;;;;;0.90;99.90;;;;;;5097714;27;19935;-85
2024/01/27 09:36:51;;;;;;;;;;;1.00;99.90;;;;;;5097504;27;19975;-85
2024/01/27 09:39:16;;;;;;;;;;;1.20;99.90;;;;;;5115039;27;19997;-85
2024/01/27 09:41:42;;;;;;;;;;;1.30;99.90;;;;;;5115380;27;19969;-86
2024/01/27 09:44:11;;;;;;;;;;;1.30;99.90;;;;;;5098592;27;20366;-85
2024/01/27 09:46:38;;;;;;;;;;;1.30;99.90;;;;;;5099226;27;20373;-86
2024/01/27 09:49:04;;;;;;;;;;;1.40;99.90;;;;;;5115156;27;19922;-85
2024/01/27 09:51:29;;;;;;;;;;;1.50;99.90;;;;;;5098645;27;19915;-85
2024/01/27 09:53:55;;;;;;;;;;;1.50;99.90;;;;;;5098104;27;19918;-85
2024/01/27 09:56:21;;;;;;;;;;;1.60;99.90;;;;;;5116176;28;19904;-86
2024/01/27 09:59:21;;;;;;;;;;;1.70;99.90;;;;;;5098204;27;19915;-86
2024/01/27 10:01:48;;;;;;;;;;;1.70;99.90;;;;;;5132544;27;19911;-85
2024/01/27 10:04:13;;;;;;;;;;;1.80;99.90;;;;;;5098772;28;20073;-86
2024/01/27 10:06:40;;;;;;;;;;;1.80;99.90;;;;;;5098445;28;19907;-87
2024/01/27 10:09:06;;;;;;;;;;;1.90;99.90;;;;;;5099026;28;20468;-87
2024/01/27 10:11:34;;;;;;;;;;;2.00;99.90;;;;;;5114917;28;19915;-86
2024/01/27 10:13:59;;;;;;;;;;;2.00;99.90;;;;;;5097984;28;19979;-86
2024/01/27 10:16:25;;;;;;;;;;;2.10;99.90;;;;;;5098094;28;19964;-86
2024/01/27 10:19:03;;;;;;;;;;;2.20;99.90;;;;;;5097228;28;19911;-86
2024/01/27 10:21:29;;;;;;;;;;;2.20;99.90;;;;;;5097885;28;19907;-86
2024/01/27 10:23:54;;;;;;;;;;;2.30;99.90;;;;;;5111328;28;19915;-86
2024/01/27 10:26:20;;;;;;;;;;;2.40;99.90;;;;;;5097404;28;20278;-85
2024/01/27 10:28:53;;;;;;;;;;;2.50;99.90;;;;;;5098361;28;19925;-85
2024/01/27 10:31:23;;;;;;;;;;;2.70;99.90;;;;;;5097941;28;19965;-86
2024/01/27 10:33:53;;;;;;;;;;;3.00;99.90;;;;;;5098868;28;19914;-86
2024/01/27 10:36:19;;;;;;;;;;;3.40;99.90;;;;;;5097972;28;19926;-86
2024/01/27 10:38:44;;;;;;;;;;;3.80;99.90;;;;;;5098420;28;19997;-85
2024/01/27 10:41:10;;;;;;;;;;;4.50;99.90;;;;;;5134013;28;19908;-86
2024/01/27 10:43:36;;;;;;;;;;;4.80;99.90;;;;;;5099143;28;20243;-86
2024/01/27 10:46:05;;;;;;;;;;;4.90;99.90;;;;;;5115337;28;19907;-84
2024/01/27 10:48:31;;;;;;;;;;;4.70;99.90;;;;;;5098314;28;19915;-86
2024/01/27 10:50:58;;;;;;;;;;;4.60;99.90;;;;;;5133289;28;19907;-86
2024/01/27 10:53:24;;;;;;;;;;;4.60;99.90;;;;;;5115822;28;20009;-86
2024/01/27 10:55:52;;;;;;;;;;;4.60;99.90;;;;;;5098244;28;19964;-86
2024/01/27 10:58:19;;;;;;;;;;;4.60;99.90;;;;;;5114965;28;19963;-87
2024/01/27 11:00:45;;;;;;;;;;;4.70;99.90;;;;;;5098311;28;19914;-86
2024/01/27 11:03:11;;;;;;;;;;;4.70;99.90;;;;;;5114929;28;19911;-86
2024/01/27 11:05:50;;;;;;;;;;;4.60;99.90;;;;;;5097568;28;19907;-86
2024/01/27 11:08:16;;;;;;;;;;;4.60;99.90;;;;;;5097541;27;20402;-86
2024/01/27 11:10:41;;;;;;;;;;;4.60;99.90;;;;;;5100513;27;20302;-86
2024/01/27 11:13:33;;;;;;;;;;;4.80;99.90;;;;;;5118794;27;19907;-86
2024/01/27 11:19:28;;;;;;;;;;;5.10;99.90;;;;;;5137479;27;20000;-87
2024/01/27 11:22:00;;;;;;;;;;;5.00;99.90;;;;;;5118929;27;19962;-86
2024/01/27 11:24:26;;;;;;;;;;;4.70;99.90;;;;;;5101742;27;19907;-86
2024/01/27 11:27:02;;;;;;;;;;;4.60;99.90;;;;;;5136464;27;19915;-85
2024/01/27 11:29:29;;;;;;;;;;;4.60;99.90;;;;;;5118626;27;19941;-85
2024/01/27 11:31:55;;;;;;;;;;;4.60;99.90;;;;;;5136725;27;19911;-86
2024/01/27 11:34:21;;;;;;;;;;;4.40;99.90;;;;;;5100459;27;19907;-85
2024/01/27 11:36:47;;;;;;;;;;;4.30;99.90;;;;;;5117583;27;20381;-85
2024/01/27 11:39:26;;;;;;;;;;;4.40;99.90;;;;;;5101477;27;19911;-86
2024/01/27 11:41:53;;;;;;;;;;;4.50;99.90;;;;;;5101174;27;19907;-85
2024/01/27 11:44:19;;;;;;;;;;;4.60;99.90;;;;;;5118246;27;20580;-86
2024/01/27 11:46:45;;;;;;;;;;;4.60;99.90;;;;;;5101097;27;19914;-86
2024/01/27 11:49:14;;;;;;;;;;;4.60;99.90;;;;;;5101565;27;19950;-86
2024/01/27 11:51:40;;;;;;;;;;;4.80;99.90;;;;;;5101364;27;19907;-86
2024/01/27 11:54:05;;;;;;;;;;;4.90;99.90;;;;;;5101455;27;19908;-85
2024/01/27 11:56:31;;;;;;;;;;;5.00;99.90;;;;;;5118075;27;19911;-86
2024/01/27 11:58:57;;;;;;;;;;;5.00;99.90;;;;;;5118752;27;19907;-86
2024/01/27 12:01:23;;;;;;;;;;;5.20;99.90;;;;;;5101059;27;20255;-86
2024/01/27 12:03:49;;;;;;;;;;;5.40;99.90;;;;;;5100946;27;19907;-86
2024/01/27 12:06:14;;;;;;;;;;;5.50;99.90;;;;;;5136546;27;19907;-87
2024/01/27 12:08:47;;;;;;;;;;;5.80;99.90;;;;;;5101358;27;20648;-86
2024/01/27 12:11:13;;;;;;;;;;;6.10;99.90;;;;;;5100313;27;19911;-86
2024/01/27 12:13:39;;;;;;;;;;;6.10;99.90;;;;;;5101083;27;19911;-86
2024/01/27 12:16:05;;;;;;;;;;;6.10;99.90;;;;;;5100169;27;19911;-86
2024/01/27 12:18:30;;;;;;;;;;;5.70;99.90;;;;;;5100898;27;19967;-86
2024/01/27 12:20:59;;;;;;;;;;;5.30;99.90;;;;;;5100019;27;20517;-86
2024/01/27 12:23:25;;;;;;;;;;;5.00;99.90;;;;;;5118338;27;19908;-87
2024/01/27 12:25:55;;;;;;;;;;;4.60;99.90;;;;;;5101051;27;19907;-86
2024/01/27 12:28:22;;;;;;;;;;;4.50;99.90;;;;;;5100760;27;19954;-85
2024/01/27 12:30:48;;;;;;;;;;;4.20;99.90;;;;;;5100598;27;20718;-86
2024/01/27 12:33:14;;;;;;;;;;;4.10;99.90;;;;;;5100865;27;19912;-87
2024/01/27 12:35:40;;;;;;;;;;;3.90;99.90;;;;;;5103289;27;19956;-84
2024/01/27 12:38:06;;;;;;;;;;;3.90;99.90;;;;;;5128607;27;19994;-87
2024/01/27 12:40:31;;;;;;;;;;;3.80;99.90;;;;;;5116479;27;19914;-86
2024/01/27 12:42:57;;;;;;;;;;;3.70;99.90;;;;;;5100162;27;19942;-86
2024/01/27 12:45:23;;;;;;;;;;;3.70;99.90;;;;;;5117140;27;20373;-86
2024/01/27 12:47:49;;;;;;;;;;;3.70;99.90;;;;;;5098722;27;19911;-86
2024/01/27 12:50:14;;;;;;;;;;;3.70;99.90;;;;;;5098935;27;20312;-86
2024/01/27 12:52:40;;;;;;;;;;;3.60;99.90;;;;;;5099687;27;19911;-86
2024/01/27 12:55:06;;;;;;;;;;;3.60;99.90;;;;;;5100016;27;19904;-86
2024/01/27 12:57:31;;;;;;;;;;;3.60;99.90;;;;;;5116663;27;19958;-86
2024/01/27 12:59:57;;;;;;;;;;;3.60;99.90;;;;;;5099756;27;19933;-86
2024/01/27 13:02:22;;;;;;;;;;;3.70;99.90;;;;;;5116263;27;20340;-86
2024/01/27 13:04:48;;;;;;;;;;;3.70;99.90;;;;;;5099162;27;19907;-86
2024/01/27 13:07:14;;;;;;;;;;;3.70;99.90;;;;;;5098745;27;19919;-85
2024/01/27 13:09:39;;;;;;;;;;;3.70;99.90;;;;;;5116385;27;19911;-86
2024/01/27 13:12:05;;;;;;;;;;;3.70;99.90;;;;;;5098934;27;19922;-86
2024/01/27 13:14:31;;;;;;;;;;;3.80;99.90;;;;;;5115688;27;20296;-86
2024/01/27 13:16:59;;;;;;;;;;;3.80;99.90;;;;;;5099154;27;19994;-86
2024/01/27 13:19:25;;;;;;;;;;;3.90;99.90;;;;;;5116082;27;19915;-86
2024/01/27 13:21:50;;;;;;;;;;;3.90;99.90;;;;;;5099149;27;19956;-86
2024/01/27 13:24:16;;;;;;;;;;;3.80;99.90;;;;;;5099140;27;19907;-86
2024/01/27 13:26:41;;;;;;;;;;;3.80;99.90;;;;;;5099210;27;20011;-86
2024/01/27 13:29:08;;;;;;;;;;;3.80;99.90;;;;;;5098463;27;19903;-86
2024/01/27 13:31:34;;;;;;;;;;;3.80;99.90;;;;;;5115849;27;19961;-86
2024/01/27 13:33:59;;;;;;;;;;;3.80;99.90;;;;;;5098814;27;19903;-86
2024/01/27 13:36:25;;;;;;;;;;;3.80;99.90;;;;;;5098849;27;19908;-85
2024/01/27 13:38:51;;;;;;;;;;;3.70;99.90;;;;;;5115736;27;20319;-85
2024/01/27 13:41:17;;;;;;;;;;;3.70;99.90;;;;;;5098532;27;19998;-86
2024/01/27 13:43:43;;;;;;;;;;;3.70;99.90;;;;;;5099073;27;20340;-86
2024/01/27 13:46:09;;;;;;;;;;;3.60;99.90;;;;;;5098988;27;19908;-85
2024/01/27 13:48:34;;;;;;;;;;;3.60;99.90;;;;;;5133927;27;20346;-86
2024/01/27 13:51:00;;;;;;;;;;;3.60;99.90;;;;;;5097591;27;19915;-85
2024/01/27 13:53:27;;;;;;;;;;;3.60;99.90;;;;;;5098156;27;20401;-86
2024/01/27 13:55:53;;;;;;;;;;;3.60;99.90;;;;;;5098628;28;19962;-86
2024/01/27 13:58:19;;;;;;;;;;;3.60;99.90;;;;;;5134942;27;20629;-88
2024/01/27 14:00:45;;;;;;;;;;;3.60;99.90;;;;;;5100007;27;19917;-87
2024/01/27 14:03:11;;;;;;;;;;;3.70;99.90;;;;;;5099450;28;20010;-87
2024/01/27 14:05:38;;;;;;;;;;;3.80;99.90;;;;;;5099588;28;19918;-87
2024/01/27 14:08:04;;;;;;;;;;;3.80;99.90;;;;;;5116437;28;20328;-83
2024/01/27 14:10:30;;;;;;;;;;;3.90;99.90;;;;;;5097783;28;20006;-88
2024/01/27 14:12:55;;;;;;;;;;;4.00;99.90;;;;;;5099820;28;19950;-87
2024/01/27 14:15:21;;;;;;;;;;;4.00;99.90;;;;;;5099973;28;19915;-88
2024/01/27 14:17:47;;;;;;;;;;;4.10;99.90;;;;;;5100645;28;19998;-87
2024/01/27 14:20:13;;;;;;;;;;;4.00;99.90;;;;;;5099639;28;19960;-87
2024/01/27 14:22:39;;;;;;;;;;;4.00;99.90;;;;;;5100406;28;19988;-87
2024/01/27 14:25:05;;;;;;;;;;;3.90;99.90;;;;;;5099336;28;20021;-86